Terminal Aerodrome Forecast
Issued by NWS

Home | Current Version | Previous Version | Text Only | Print | Product List | Glossary On
Versions: 1 2 3 4 5 6 7 8 9 10 11 12 13 14
000
FTUS42 KTBW 240521
TAFPGD
TAF
KPGD 240521Z 2406/2506 09004KT P6SM FEW020 SCT100 BKN250
     FM241400 VRB05KT P6SM SCT025 BKN250
     FM241800 23006KT P6SM VCTS BKN040CB BKN100
     FM250100 VRB03KT P6SM BKN050 BKN100=

USA.gov is the U.S. government's official web portal to all federal, state and local government web resources and services.